Urb El Rocio, Puerto Rico
Current Conditions -  °F | °C
As of 1:56 PM on Thursday 25 Dec 2014 (Local Time) from TJSJ Reporting Station
Scattered Clouds Scattered Clouds  
Wind Chill: 83°   Ceiling: Unl
Heat Index: 88°   Visibility: 10mi
Dew Point: 72°   Wind: 16mph
Humidity: 69%   Direction: 40°NE
Pressure: 30.06"   Gusts: NA
Location:  18.1193°N, 66.1642°W
Report Text: TJSJ 251756Z 04014KT 10SM FEW028 SCT070 SCT090 28/22 A3006 RMK AO2 SLP176 SHRA DSNT SE S SW 60002 T02830222 10289 20244 58020
Loading
Personal Weather Stations






























Interactive Weather Map New forecast layout! Learn more

10-Day Weather Forecast

Advertisements
Track Severe Weather on mobile